createdAt,value
2023-05-12T05:00:39.383Z,96680.34
2023-05-12T05:03:05.913Z,96676.44
2023-05-12T05:05:32.518Z,96675.00
2023-05-12T05:07:58.999Z,96678.56
2023-05-12T05:10:25.413Z,96680.91
2023-05-12T05:12:51.800Z,96681.63
2023-05-12T05:15:18.338Z,96686.03
2023-05-12T05:17:44.968Z,96679.59
2023-05-12T05:20:12.617Z,96686.88
2023-05-12T05:22:41.724Z,96683.06
2023-05-12T05:25:08.217Z,96689.53
2023-05-12T05:27:34.766Z,96683.59
2023-05-12T05:30:01.206Z,96689.88
2023-05-12T05:32:27.658Z,96685.56
2023-05-12T05:34:54.179Z,96677.78
2023-05-12T05:37:20.772Z,96685.09
2023-05-12T05:39:47.202Z,96679.00
2023-05-12T05:42:13.770Z,96682.13
2023-05-12T05:44:40.301Z,96689.88
2023-05-12T05:47:06.905Z,96689.38
2023-05-12T05:49:33.441Z,96693.53
2023-05-12T05:51:59.981Z,96693.75
2023-05-12T05:54:26.462Z,96695.28
2023-05-12T05:56:52.968Z,96694.31
2023-05-12T05:59:19.383Z,96694.66
2023-05-12T06:01:45.882Z,96690.94
2023-05-12T06:04:12.436Z,96695.09
2023-05-12T06:06:39.040Z,96690.28
2023-05-12T06:09:05.569Z,96691.06
2023-05-12T06:11:32.080Z,96697.56
2023-05-12T06:13:58.582Z,96689.69
2023-05-12T06:16:25.106Z,96689.53
2023-05-12T06:18:51.692Z,96689.53
2023-05-12T06:21:18.218Z,96691.44
2023-05-12T06:23:44.667Z,96690.97
2023-05-12T06:26:11.185Z,96694.00
2023-05-12T06:28:37.594Z,96690.19
2023-05-12T06:31:04.068Z,96698.56
2023-05-12T06:33:30.478Z,96703.28
2023-05-12T06:35:56.921Z,96690.91
2023-05-12T06:38:23.358Z,96704.16
2023-05-12T06:40:49.837Z,96700.06
2023-05-12T06:43:16.333Z,96692.56
2023-05-12T06:45:42.803Z,96706.28
2023-05-12T06:48:09.334Z,96703.72
2023-05-12T06:50:35.896Z,96705.94
2023-05-12T06:53:02.452Z,96706.09
2023-05-12T06:55:28.946Z,96700.06
2023-05-12T06:57:55.452Z,96700.41
2023-05-12T07:00:21.916Z,96708.78
2023-05-12T07:02:48.389Z,96706.09
2023-05-12T07:05:14.894Z,96704.28
2023-05-12T07:07:41.411Z,96708.31
2023-05-12T07:10:07.837Z,96704.19
2023-05-12T07:12:34.396Z,96715.03
2023-05-12T07:15:00.884Z,96709.97
2023-05-12T07:17:27.305Z,96707.84
2023-05-12T07:19:53.807Z,96710.88
2023-05-12T07:22:20.323Z,96706.75
2023-05-12T07:24:46.750Z,96710.75
2023-05-12T07:27:13.243Z,96707.66
2023-05-12T07:29:39.724Z,96703.84
2023-05-12T07:32:06.218Z,96707.91
2023-05-12T07:34:32.667Z,96704.66
2023-05-12T07:36:59.186Z,96696.06
2023-05-12T07:39:25.716Z,96701.22
2023-05-12T07:41:52.236Z,96701.03
2023-05-12T07:44:18.788Z,96699.78
2023-05-12T07:46:45.356Z,96693.97
2023-05-12T07:49:11.847Z,96693.72
2023-05-12T07:51:38.389Z,96690.38
2023-05-12T07:54:04.970Z,96694.50
2023-05-12T07:56:31.433Z,96686.78
2023-05-12T07:58:57.994Z,96695.03
2023-05-12T08:01:24.507Z,96690.81
2023-05-12T08:03:51.208Z,96695.06
2023-05-12T08:06:18.045Z,96689.50
2023-05-12T08:08:44.541Z,96692.06
2023-05-12T08:11:11.057Z,96683.56
2023-05-12T08:13:37.599Z,96693.25
2023-05-12T08:16:04.086Z,96692.94
2023-05-12T08:18:30.618Z,96692.28
2023-05-12T08:20:57.103Z,96686.66
2023-05-12T08:23:23.644Z,96693.06
2023-05-12T08:25:50.069Z,96691.44
2023-05-12T08:28:16.538Z,96692.81
2023-05-12T08:30:43.007Z,96688.22
2023-05-12T08:33:09.968Z,96690.03
2023-05-12T08:35:36.660Z,96685.91
2023-05-12T08:38:03.215Z,96686.38
2023-05-12T08:40:29.710Z,96682.78
2023-05-12T08:42:56.153Z,96683.34
2023-05-12T08:45:22.766Z,96680.53
2023-05-12T08:47:49.381Z,96678.09
2023-05-12T08:50:15.908Z,96675.19
2023-05-12T08:52:42.459Z,96682.59
2023-05-12T08:55:08.938Z,96682.47
2023-05-12T08:57:36.471Z,96663.78
2023-05-12T09:00:04.070Z,96675.78
2023-05-12T09:02:41.113Z,96670.19
2023-05-12T09:05:11.518Z,96656.00
2023-05-12T09:07:38.007Z,96657.44
2023-05-12T09:10:04.517Z,96659.22
2023-05-12T09:12:30.961Z,96650.25
2023-05-12T09:14:57.389Z,96665.81
2023-05-12T09:17:23.976Z,96651.53
2023-05-12T09:19:50.500Z,96646.69
2023-05-12T09:22:17.062Z,96648.22
2023-05-12T09:24:46.568Z,96646.81
2023-05-12T09:27:13.062Z,96654.09
2023-05-12T09:29:48.254Z,96657.22
2023-05-12T09:32:25.040Z,96656.88
2023-05-12T09:34:51.571Z,96652.75
2023-05-12T09:37:18.033Z,96656.88
2023-05-12T09:39:44.554Z,96649.16
2023-05-12T09:42:10.987Z,96652.31
2023-05-12T09:44:37.455Z,96641.44
2023-05-12T09:47:03.887Z,96656.78
2023-05-12T09:49:30.379Z,96649.75
2023-05-12T09:51:56.826Z,96649.84
2023-05-12T09:54:23.326Z,96649.41
2023-05-12T09:56:49.861Z,96649.50
2023-05-12T09:59:18.165Z,96650.72
2023-05-12T10:01:44.582Z,96648.72
2023-05-12T10:04:11.038Z,96640.00
2023-05-12T10:06:37.507Z,96643.47
2023-05-12T10:09:04.077Z,96638.34
2023-05-12T10:11:30.618Z,96644.97
2023-05-12T10:13:57.035Z,96636.84
2023-05-12T10:16:23.560Z,96639.88
2023-05-12T10:18:50.221Z,96638.56
2023-05-12T10:21:16.790Z,96639.94
2023-05-12T10:23:43.361Z,96644.50
2023-05-12T10:26:09.808Z,96642.16
2023-05-12T10:28:36.221Z,96645.75
2023-05-12T10:31:02.648Z,96636.88
2023-05-12T10:33:29.201Z,96639.13
2023-05-12T10:35:55.650Z,96632.53
2023-05-12T10:38:22.129Z,96638.78
2023-05-12T10:40:48.647Z,96639.34
2023-05-12T10:43:15.075Z,96637.00
2023-05-12T10:45:41.668Z,96635.78
2023-05-12T10:48:08.273Z,96634.75
2023-05-12T10:50:34.865Z,96624.47
2023-05-12T10:53:01.379Z,96617.78
2023-05-12T10:55:28.020Z,96613.06
2023-05-12T10:57:54.840Z,96613.75
2023-05-12T11:00:22.433Z,96603.91
2023-05-12T11:02:51.085Z,96593.56
2023-05-12T11:05:17.977Z,96598.72
2023-05-12T11:07:45.499Z,96593.84
2023-05-12T11:10:13.314Z,96602.75
2023-05-12T11:12:39.922Z,96601.06
2023-05-12T11:15:06.460Z,96597.38
2023-05-12T11:17:33.203Z,96596.88
2023-05-12T11:19:59.853Z,96598.28
2023-05-12T11:22:26.396Z,96594.34
2023-05-12T11:24:53.307Z,96588.44
2023-05-12T11:27:19.889Z,96590.19
2023-05-12T11:29:46.407Z,96583.41
2023-05-12T11:32:12.847Z,96590.69
2023-05-12T11:34:39.421Z,96596.69
2023-05-12T11:37:05.906Z,96584.03
2023-05-12T11:42:05.716Z,96586.13
2023-05-12T11:44:39.111Z,96584.34
2023-05-12T11:47:05.548Z,96587.41
2023-05-12T11:49:32.031Z,96581.38
2023-05-12T11:51:58.492Z,96577.94
2023-05-12T11:54:24.987Z,96574.88
2023-05-12T11:56:51.407Z,96574.53
2023-05-12T11:59:17.861Z,96566.03
2023-05-12T12:01:44.346Z,96575.94
2023-05-12T12:04:10.891Z,96573.44
2023-05-12T12:06:37.559Z,96578.63
2023-05-12T12:09:04.128Z,96583.63
2023-05-12T12:11:30.780Z,96572.97
2023-05-12T12:13:57.395Z,96572.25
2023-05-12T12:16:23.879Z,96562.88
2023-05-12T12:18:50.505Z,96574.47
2023-05-12T12:21:18.868Z,96570.00
2023-05-12T12:23:51.422Z,96561.28
2023-05-12T12:26:18.272Z,96558.91
2023-05-12T12:28:44.779Z,96569.09
2023-05-12T12:31:11.336Z,96567.19
2023-05-12T12:33:37.865Z,96558.44
2023-05-12T12:36:04.358Z,96558.34
2023-05-12T12:38:30.873Z,96553.88
2023-05-12T12:40:57.428Z,96559.25
2023-05-12T12:43:23.949Z,96564.19
2023-05-12T12:45:50.558Z,96566.31
2023-05-12T12:48:17.091Z,96559.38
2023-05-12T12:50:43.552Z,96561.28
2023-05-12T12:53:10.062Z,96561.59
2023-05-12T12:55:36.506Z,96553.31
2023-05-12T12:58:03.058Z,96562.44
2023-05-12T13:00:29.577Z,96551.78
2023-05-12T13:02:56.228Z,96541.25
2023-05-12T13:05:23.076Z,96540.81
2023-05-12T13:07:49.689Z,96547.31
2023-05-12T13:10:16.154Z,96545.97
2023-05-12T13:12:42.659Z,96548.63
2023-05-12T13:15:09.248Z,96538.41
2023-05-12T13:17:35.809Z,96542.78
2023-05-12T13:20:02.353Z,96538.53
2023-05-12T13:22:28.842Z,96540.72
2023-05-12T13:24:55.358Z,96534.84
2023-05-12T13:27:21.823Z,96536.97
2023-05-12T13:29:48.340Z,96533.34
2023-05-12T13:32:14.895Z,96532.28
2023-05-12T13:34:41.447Z,96531.78
2023-05-12T13:37:07.992Z,96531.38
2023-05-12T13:39:34.473Z,96528.75
2023-05-12T13:42:00.942Z,96539.91
2023-05-12T13:44:27.560Z,96525.69
2023-05-12T13:46:54.130Z,96524.13
2023-05-12T13:49:20.642Z,96530.59
2023-05-12T13:51:47.080Z,96523.75
2023-05-12T13:54:13.615Z,96518.59
2023-05-12T13:56:40.076Z,96510.84
2023-05-12T13:59:06.604Z,96512.31
2023-05-12T14:01:33.194Z,96511.94
2023-05-12T14:03:59.656Z,96508.72
2023-05-12T14:06:26.161Z,96517.31
2023-05-12T14:08:52.778Z,96517.13
2023-05-12T14:11:19.374Z,96515.03
2023-05-12T14:13:45.884Z,96516.44
2023-05-12T14:16:12.638Z,96529.41
2023-05-12T14:18:40.343Z,96512.31
2023-05-12T14:21:07.875Z,96517.34
2023-05-12T14:23:34.473Z,96509.97
2023-05-12T14:26:00.979Z,96507.94
2023-05-12T14:28:27.595Z,96506.28
2023-05-12T14:30:54.220Z,96501.22
2023-05-12T14:33:20.837Z,96489.63
2023-05-12T14:35:55.658Z,96510.25
2023-05-12T14:38:29.897Z,96496.59
2023-05-12T14:40:56.346Z,96498.47
2023-05-12T14:43:22.880Z,96493.34
2023-05-12T14:45:49.419Z,96489.78
2023-05-12T14:48:15.868Z,96499.44
2023-05-12T14:50:42.324Z,96493.34
2023-05-12T14:53:08.795Z,96495.34
2023-05-12T14:55:35.269Z,96495.34
2023-05-12T14:58:01.798Z,96493.69
2023-05-12T15:00:28.308Z,96492.00
2023-05-12T15:02:54.868Z,96499.22
2023-05-12T15:05:22.907Z,96504.94
2023-05-12T15:07:54.015Z,96486.69
2023-05-12T15:10:20.489Z,96507.38
2023-05-12T15:12:46.925Z,96496.84
2023-05-12T15:15:13.433Z,96503.56
2023-05-12T15:17:39.887Z,96501.13
2023-05-12T15:20:06.354Z,96497.50
2023-05-12T15:22:35.777Z,96511.53
2023-05-12T15:25:02.238Z,96507.50
2023-05-12T15:27:28.704Z,96499.44
2023-05-12T15:29:55.155Z,96506.56
2023-05-12T15:32:21.775Z,96518.06
2023-05-12T15:34:48.204Z,96510.75
2023-05-12T15:37:14.741Z,96507.94
2023-05-12T15:39:41.408Z,96503.91
2023-05-12T15:42:07.970Z,96504.31
2023-05-12T15:44:34.391Z,96507.13
2023-05-12T15:47:02.078Z,96516.41
2023-05-12T15:49:28.611Z,96516.34
2023-05-12T15:51:55.136Z,96513.16
2023-05-12T15:54:21.687Z,96509.50
2023-05-12T15:56:48.155Z,96513.41
2023-05-12T15:59:14.666Z,96507.69
2023-05-12T16:01:41.217Z,96500.81
2023-05-12T16:04:07.919Z,96508.47
2023-05-12T16:06:34.398Z,96514.00
2023-05-12T16:09:00.916Z,96515.22
2023-05-12T16:11:27.369Z,96526.78
2023-05-12T16:13:53.942Z,96523.47
2023-05-12T16:16:20.420Z,96526.50
2023-05-12T16:18:47.021Z,96532.16
2023-05-12T16:21:13.568Z,96522.50
2023-05-12T16:23:40.101Z,96524.88
2023-05-12T16:26:06.624Z,96533.94
2023-05-12T16:28:33.070Z,96529.34
2023-05-12T16:30:59.590Z,96526.31
2023-05-12T16:33:26.078Z,96532.84
2023-05-12T16:35:52.569Z,96522.88
2023-05-12T16:38:19.075Z,96520.56
2023-05-12T16:40:45.504Z,96525.06
2023-05-12T16:43:11.913Z,96526.94
2023-05-12T16:45:38.427Z,96521.53
2023-05-12T16:48:04.923Z,96530.78
2023-05-12T16:50:31.404Z,96530.13
2023-05-12T16:52:57.863Z,96538.69
2023-05-12T16:55:24.292Z,96525.56
2023-05-12T16:57:50.716Z,96529.59
2023-05-12T17:00:17.253Z,96530.06
2023-05-12T17:02:43.818Z,96530.84
2023-05-12T17:05:10.282Z,96541.66
2023-05-12T17:07:36.739Z,96542.59
2023-05-12T17:10:03.207Z,96538.06
2023-05-12T17:12:29.688Z,96531.28
2023-05-12T17:15:06.946Z,96542.19
2023-05-12T17:17:34.311Z,96546.06
2023-05-12T17:20:01.081Z,96543.56
2023-05-12T17:22:27.658Z,96549.06
2023-05-12T17:24:54.107Z,96549.41
2023-05-12T17:27:20.638Z,96546.63
2023-05-12T17:29:47.185Z,96563.19
2023-05-12T17:32:13.776Z,96557.19
2023-05-12T17:34:40.318Z,96559.41
2023-05-12T17:37:06.806Z,96562.06
2023-05-12T17:39:33.318Z,96561.72
2023-05-12T17:41:59.835Z,96564.50
2023-05-12T17:44:26.329Z,96568.66
2023-05-12T17:46:52.921Z,96564.88
2023-05-12T17:49:19.391Z,96566.19
2023-05-12T17:51:45.864Z,96566.44
2023-05-12T17:54:12.361Z,96562.97
2023-05-12T17:56:38.895Z,96561.22
2023-05-12T17:59:05.414Z,96560.56
2023-05-12T18:01:31.998Z,96570.50
2023-05-12T18:03:58.530Z,96578.34
2023-05-12T18:06:25.070Z,96572.69
2023-05-12T18:08:51.603Z,96586.78
2023-05-12T18:11:18.069Z,96579.19
2023-05-12T18:13:44.512Z,96577.28
2023-05-12T18:16:21.347Z,96570.66
2023-05-12T18:18:54.351Z,96577.13
2023-05-12T18:21:20.867Z,96587.66
2023-05-12T18:23:47.442Z,96584.53
2023-05-12T18:26:14.010Z,96589.56
2023-05-12T18:28:40.562Z,96585.53
2023-05-12T18:31:16.069Z,96597.50
2023-05-12T18:33:43.072Z,96603.22
2023-05-12T18:36:10.042Z,96600.84
2023-05-12T18:38:36.654Z,96601.53
2023-05-12T18:41:03.233Z,96599.97
2023-05-12T18:43:29.764Z,96605.66
2023-05-12T18:45:56.299Z,96602.19
2023-05-12T18:48:22.954Z,96601.19
2023-05-12T18:50:49.552Z,96604.88
2023-05-12T18:53:16.069Z,96614.25
2023-05-12T18:55:42.599Z,96604.44
2023-05-12T18:58:09.114Z,96606.66
2023-05-12T19:00:35.660Z,96601.94
2023-05-12T19:03:03.180Z,96603.19
2023-05-12T19:05:29.900Z,96601.16
2023-05-12T19:07:56.521Z,96606.09
2023-05-12T19:10:23.133Z,96609.00
2023-05-12T19:12:49.650Z,96609.56
2023-05-12T19:15:16.272Z,96620.28
2023-05-12T19:17:42.831Z,96620.41
2023-05-12T19:20:09.456Z,96621.31
2023-05-12T19:22:36.027Z,96623.66
2023-05-12T19:25:02.502Z,96634.03
2023-05-12T19:27:29.052Z,96637.31
2023-05-12T19:29:55.542Z,96638.91
2023-05-12T19:32:22.077Z,96648.88
2023-05-12T19:34:48.669Z,96648.22
2023-05-12T19:37:15.205Z,96648.56
2023-05-12T19:39:41.637Z,96653.59
2023-05-12T19:42:08.194Z,96650.13
2023-05-12T19:44:34.695Z,96655.81
2023-05-12T19:47:01.219Z,96662.63
2023-05-12T19:49:27.639Z,96656.47
2023-05-12T19:51:54.280Z,96663.63
2023-05-12T19:54:20.765Z,96669.91
2023-05-12T19:56:47.288Z,96668.19
2023-05-12T19:59:13.767Z,96664.84
2023-05-12T20:01:40.390Z,96676.38
2023-05-12T20:04:07.001Z,96675.59
2023-05-12T20:06:33.521Z,96681.41
2023-05-12T20:09:00.007Z,96680.16
2023-05-12T20:11:26.487Z,96677.50
2023-05-12T20:13:53.028Z,96689.91
2023-05-12T20:16:19.617Z,96682.53
2023-05-12T20:18:46.235Z,96689.34
2023-05-12T20:21:12.770Z,96680.38
2023-05-12T20:23:39.238Z,96683.63
2023-05-12T20:26:05.747Z,96685.75
2023-05-12T20:28:32.238Z,96688.53
2023-05-12T20:31:00.189Z,96688.75
2023-05-12T20:33:26.693Z,96690.00
2023-05-12T20:35:53.145Z,96689.00
2023-05-12T20:38:19.619Z,96697.59
2023-05-12T20:40:46.136Z,96698.03
2023-05-12T20:43:12.637Z,96692.88
2023-05-12T20:45:39.098Z,96695.22
2023-05-12T20:48:05.684Z,96693.66
2023-05-12T20:50:32.179Z,96695.81
2023-05-12T20:52:58.691Z,96699.28
2023-05-12T20:55:25.200Z,96706.53
2023-05-12T20:57:51.676Z,96707.66
2023-05-12T21:00:18.094Z,96704.50
2023-05-12T21:02:44.561Z,96701.59
2023-05-12T21:05:11.032Z,96707.06
2023-05-12T21:07:37.567Z,96713.53
2023-05-12T21:10:04.144Z,96709.75
2023-05-12T21:12:30.660Z,96712.34
2023-05-12T21:14:57.269Z,96701.28
2023-05-12T21:17:23.753Z,96712.44
2023-05-12T21:19:50.317Z,96708.63
2023-05-12T21:22:16.879Z,96708.19
2023-05-12T21:24:43.399Z,96716.13
2023-05-12T21:27:09.993Z,96712.66
2023-05-12T21:29:36.636Z,96714.69
2023-05-12T21:32:03.214Z,96719.59
2023-05-12T21:34:29.715Z,96717.38
2023-05-12T21:36:56.193Z,96714.22
2023-05-12T21:39:22.687Z,96707.94
2023-05-12T21:41:49.249Z,96709.22
2023-05-12T21:44:15.795Z,96711.59
2023-05-12T21:46:42.427Z,96717.56
2023-05-12T21:49:09.161Z,96713.91
2023-05-12T21:51:35.757Z,96715.47
2023-05-12T21:54:02.331Z,96713.31
2023-05-12T21:56:28.856Z,96710.31
2023-05-12T21:58:55.319Z,96710.19
2023-05-12T22:01:21.831Z,96707.63
2023-05-12T22:03:48.644Z,96715.66
2023-05-12T22:06:15.267Z,96716.47
2023-05-12T22:08:41.811Z,96719.59
2023-05-12T22:11:08.296Z,96714.88
2023-05-12T22:13:34.796Z,96715.38
2023-05-12T22:16:01.342Z,96715.53
2023-05-12T22:18:29.948Z,96709.22
2023-05-12T22:20:56.489Z,96719.97
2023-05-12T22:23:23.028Z,96723.09
2023-05-12T22:25:49.470Z,96723.88
2023-05-12T22:28:16.039Z,96718.69
2023-05-12T22:30:42.582Z,96716.50
2023-05-12T22:33:09.204Z,96716.66
2023-05-12T22:35:35.726Z,96727.41
2023-05-12T22:38:02.205Z,96720.94
2023-05-12T22:40:28.733Z,96729.56
2023-05-12T22:42:55.291Z,96729.13
2023-05-12T22:45:21.732Z,96731.00
2023-05-12T22:47:48.253Z,96721.72
2023-05-12T22:50:14.770Z,96731.00
2023-05-12T22:52:41.313Z,96728.66
2023-05-12T22:55:07.925Z,96741.16
2023-05-12T22:57:34.432Z,96730.22
2023-05-12T23:00:00.955Z,96737.22
2023-05-12T23:02:27.482Z,96733.22
2023-05-12T23:04:54.092Z,96737.69
2023-05-12T23:07:20.594Z,96732.91
2023-05-12T23:09:47.118Z,96733.38
2023-05-12T23:12:13.692Z,96731.34
2023-05-12T23:14:40.243Z,96739.72
2023-05-12T23:17:06.860Z,96735.47
2023-05-12T23:19:33.375Z,96731.66
2023-05-12T23:21:59.893Z,96735.47
2023-05-12T23:24:26.496Z,96729.75
2023-05-12T23:26:52.993Z,96731.19
2023-05-12T23:29:19.468Z,96735.31
2023-05-12T23:31:45.950Z,96740.34
2023-05-12T23:34:12.507Z,96737.81
2023-05-12T23:36:39.043Z,96743.81
2023-05-12T23:39:05.617Z,96743.81
2023-05-12T23:41:32.191Z,96742.72
2023-05-12T23:43:58.814Z,96746.84
2023-05-12T23:46:25.367Z,96748.41
2023-05-12T23:48:51.884Z,96748.41
2023-05-12T23:51:18.410Z,96751.09
2023-05-12T23:53:44.913Z,96756.13
2023-05-12T23:56:11.497Z,96758.47
2023-05-12T23:58:38.069Z,96757.69
